This demonstration page uses our WeatherBlox Daily Observations layout. Learn more.

38.89511, -77.03637

Hourly Observations for March 27, 2015

Temp ( °F °C ) Dew Point ( °F °C ) Humidity (%) Winds ( mph kmh ) Pressure ( in mb ) Visibility ( mi km ) Precip ( " mm )
12:30 am 00:30 Cloudy with Light Rain 54 12 45 7 72 72 NNW 15 24 29.77 1008 5 8.04672 0 0
12:52 am 00:52 Cloudy with Light Rain 52 11 45 7 77 77 N 12 19 29.77 1008 9 14.484096 0.06 1.524
1:52 am 01:52 Cloudy with Light Rain 52 11 45 7 77 77 N 10 17 29.77 1008 10 16.09344 0.09 2.286
2:52 am 02:52 Cloudy with Light Rain 50 10 45 7 82 82 NNW 10 17 29.77 1008 9 14.484096 0.04 1.016
3:52 am 03:52 Cloudy with Light Rain 48 9 43 6 82 82 NNW 10 17 29.8 1009 7 11.265408 0.03 0.762
4:40 am 04:40 Cloudy with Light Rain 46 8 39 4 76 76 N 14 22 29.83 1010 7 11.265408 0 0
4:52 am 04:52 Cloudy with Light Rain 46 8 39 4 76 76 N 13 20 29.83 1010 10 16.09344 0.04 1.016
5:12 am 05:12 Cloudy with Light Rain 45 7 39 4 81 81 N 14 22 29.83 1010 6 9.656064 0 0
5:52 am 05:52 Cloudy with Light Rain 45 7 37 3 76 76 N 13 20 29.8 1009 10 16.09344 0.06 1.524
6:52 am 06:52 Cloudy with Light Rain 45 7 37 3 76 76 NNE 7 11 29.8 1009 10 16.09344 0.04 1.016
7:52 am 07:52 Cloudy with Light Rain 45 7 39 4 81 81 N 12 19 29.8 1009 9 14.484096 0.01 0.254
8:52 am 08:52 Cloudy with Light Rain 46 8 37 3 71 71 NNE 6 9 29.83 1010 10 16.09344 0.05 1.27
9:52 am 09:52 Cloudy 46 8 37 3 71 71 NNE 6 9 29.83 1010 10 16.09344 0.01 0.254
10:52 am 10:52 Cloudy with Light Rain 46 8 37 3 71 71 NNW 14 22 29.83 1010 10 16.09344 0.001 0.001
11:52 am 11:52 Cloudy 46 8 36 2 66 66 NNW 10 17 29.83 1010 10 16.09344 0.001 0.001
12:52 pm 12:52 Cloudy 46 8 34 1 62 62 NNW 15 24 29.8 1009 10 16.09344 0.001 0.001
1:52 pm 13:52 Cloudy 48 9 32 0 54 54 N 15 24 29.8 1009 10 16.09344 0 0
2:52 pm 14:52 Cloudy 48 9 30 -1 50 50 NNW 9 15 29.8 1009 10 16.09344 0 0
3:52 pm 15:52 Cloudy 50 10 32 0 50 50 NNE 6 9 29.77 1008 10 16.09344 0 0
4:52 pm 16:52 Mostly Cloudy 52 11 30 -1 44 44 NW 10 17 29.77 1008 10 16.09344 0 0
5:52 pm 17:52 Mostly Cloudy 52 11 28 -2 41 41 NW 12 19 29.77 1008 10 16.09344 0 0
6:52 pm 18:52 Mostly Cloudy 50 10 27 -3 40 40 NW 12 19 29.77 1008 10 16.09344 0 0
7:52 pm 19:52 Cloudy 48 9 27 -3 43 43 NW 8 13 29.8 1009 10 16.09344 0 0
8:29 pm 20:29 Cloudy 48 9 28 -2 46 46 NNW 12 19 29.8 1009 10 16.09344 0 0
8:52 pm 20:52 Cloudy 48 9 28 -2 46 46 N 13 20 29.8 1009 10 16.09344 0 0
9:52 pm 21:52 Cloudy 46 8 27 -3 46 46 NW 16 26 29.83 1010 10 16.09344 0 0
10:08 pm 22:08 Mostly Cloudy 46 8 27 -3 46 46 NNW 20 31 29.83 1010 10 16.09344 0 0
10:52 pm 22:52 Mostly Cloudy 46 8 25 -4 43 43 NNW 17 28 29.83 1010 10 16.09344 0 0
11:52 pm 23:52 Mostly Cloudy 45 7 25 -4 46 46 NNW 16 26 29.83 1010 10 16.09344 0 0

Powered by AerisWeather